Home > Products > Valid Products > TAF

000
FTUS41 KRLX 030227 AAA
TAFCKB
TAF AMD
KCKB 030227Z 0302/0324 00000KT 6SM HZ SCT050
     FM030300 00000KT 4SM BR SCT070
     FM030600 00000KT 2SM BR SCT001 SCT050
     FM031300 00000KT P6SM SCT040
     FM031700 VRB03KT 6SM HZ VCTS BKN030CB
     FM032300 00000KT P6SM VCTS SCT030CB=



000
FTUS41 KRLX 030227 AAA
TAFCRW
TAF AMD
KCRW 030227Z 0302/0324 00000KT 6SM HZ SCT080
     FM030600 00000KT 4SM BR SCT050
     FM030800 00000KT 2SM BR SCT002
     FM031300 00000KT 6SM HZ SCT035
     FM031500 00000KT P6SM BKN035
     FM031700 VRB03KT P6SM VCTS BKN035CB
     FM032300 00000KT P6SM VCTS SCT040CB=



000
FTUS41 KRLX 030227 AAB
TAFBKW
TAF AMD
KBKW 030227Z 0302/0324 34003KT P6SM BKN040
     FM030500 00000KT 6SM BR SCT040
     FM030800 00000KT 4SM BR SCT045
     FM031300 VRB03KT P6SM SCT025
     FM031600 32005KT P6SM VCTS BKN035CB=



000
FTUS41 KRLX 030227 AAA
TAFHTS
TAF AMD
KHTS 030227Z 0302/0324 00000KT 6SM HZ SCT080
     FM030700 00000KT 4SM BR SCT050
     FM030900 00000KT 2SM BR SCT002
     FM031300 00000KT 6SM HZ SCT035
     FM031700 33005KT P6SM VCTS BKN035CB
     FM032300 VRB03KT P6SM SCT045=



000
FTUS41 KRLX 030227 AAA
TAFPKB
TAF AMD
KPKB 030227Z 0302/0324 00000KT 5SM HZ SCT080
     FM030600 00000KT 2SM BR SCT002 SCT050
     FM031300 00000KT 6SM HZ SCT035
     FM031600 00000KT P6SM BKN035
     FM031700 VRB03KT P6SM VCTS BKN035CB
     FM032100 33005KT P6SM VCTS SCT040CB=



000
FTUS41 KRLX 030227 AAA
TAFEKN
TAF AMD
KEKN 030227Z 0302/0324 VRB03KT P6SM SCT045
     FM030300 00000KT 4SM BR SCT045
     FM030500 00000KT 2SM BR SCT045
     FM030800 00000KT 1SM BR BKN003
     FM031300 00000KT 4SM BR SCT040
     FM031400 00000KT P6SM BKN040
     FM031600 28004KT P6SM VCTS BKN035CB
     FM032300 VRB03KT P6SM VCTS SCT040CB=



000
FTUS41 KRLX 030048 AAA
TAFBKW
TAF AMD
KBKW 030048Z 0301/0324 34003KT P6SM BKN040
     FM030300 00000KT 6SM BR SCT040
     FM030800 00000KT 4SM BR SCT045
     FM031600 32005KT P6SM VCTS BKN035CB=



000
FTUS41 KRLX 030048 AAA
TAFBKW
TAF AMD
KBKW 030048Z 0301/0324 34003KT P6SM BKN040
     FM030300 00000KT 6SM BR SCT040
     FM030800 00000KT 4SM BR SCT045
     FM031600 32005KT P6SM VCTS BKN035CB=



000
FTUS41 KRLX 022342
TAFHTS
TAF
KHTS 022342Z 0300/0324 00000KT 6SM HZ SCT080
     FM030700 00000KT 4SM BR SCT050
     FM030900 00000KT 2SM BR SCT002
     FM031300 00000KT 6SM HZ SCT035
     FM031700 33005KT P6SM VCTS BKN035CB
     FM032300 VRB03KT P6SM SCT045=



000
FTUS41 KRLX 022342
TAFEKN
TAF
KEKN 022342Z 0300/0324 VRB03KT P6SM SCT045
     FM030300 00000KT 4SM BR SCT045
     FM030500 00000KT 2SM BR SCT045
     FM030800 00000KT 1SM BR BKN003
     FM031300 00000KT 4SM BR SCT040
     FM031400 00000KT P6SM BKN040
     FM031600 28004KT P6SM VCTS BKN035CB
     FM032300 VRB03KT P6SM VCTS SCT040CB=



000
FTUS41 KRLX 022342
TAFCRW
TAF
KCRW 022342Z 0300/0324 00000KT 6SM HZ SCT080
     FM030600 00000KT 4SM BR SCT050
     FM030800 00000KT 2SM BR SCT002
     FM031300 00000KT 6SM HZ SCT035
     FM031500 00000KT P6SM BKN035
     FM031700 VRB03KT P6SM VCTS BKN035CB
     FM032300 00000KT P6SM VCTS SCT040CB=



000
FTUS41 KRLX 022342
TAFBKW
TAF
KBKW 022342Z 0300/0324 34005KT P6SM VCTS SCT040CB
      TEMPO 0300/0302 3SM TSRA BKN035CB
     FM030300 00000KT 6SM BR BKN040
     FM030800 00000KT 4SM BR SCT045
     FM031600 32005KT P6SM VCTS BKN035CB=



000
FTUS41 KRLX 022342
TAFCKB
TAF
KCKB 022342Z 0300/0324 00000KT 6SM HZ SCT050
     FM030300 00000KT 4SM BR SCT070
     FM030500 00000KT 2SM BR SCT001 SCT050
     FM031300 00000KT P6SM SCT040
     FM031700 VRB03KT 6SM HZ VCTS BKN030CB
     FM032300 00000KT P6SM VCTS SCT030CB=



000
FTUS41 KRLX 022342
TAFPKB
TAF
KPKB 022342Z 0300/0324 00000KT 4SM -SHRA HZ BKN040
     FM030100 00000KT 5SM HZ SCT080
     FM030500 00000KT 2SM BR SCT002 SCT050
     FM031300 00000KT 6SM HZ SCT035
     FM031600 00000KT P6SM BKN035
     FM031700 VRB03KT P6SM VCTS BKN035CB
     FM032100 33005KT P6SM VCTS SCT040CB=



000
FTUS41 KRLX 022342
TAFEKN
TAF
KEKN 022342Z 0300/0324 VRB03KT P6SM SCT045
     FM030300 00000KT 4SM BR SCT045
     FM030500 00000KT 2SM BR SCT045
     FM030800 00000KT 1SM BR BKN003
     FM031300 00000KT 4SM BR SCT040
     FM031400 00000KT P6SM BKN040
     FM031600 28004KT P6SM VCTS BKN035CB
     FM032300 VRB03KT P6SM VCTS SCT040CB=



000
FTUS41 KRLX 022342
TAFPKB
TAF
KPKB 022342Z 0300/0324 00000KT 4SM -SHRA HZ BKN040
     FM030100 00000KT 5SM HZ SCT080
     FM030500 00000KT 2SM BR SCT002 SCT050
     FM031300 00000KT 6SM HZ SCT035
     FM031600 00000KT P6SM BKN035
     FM031700 VRB03KT P6SM VCTS BKN035CB
     FM032100 33005KT P6SM VCTS SCT040CB=



000
FTUS41 KRLX 022342
TAFHTS
TAF
KHTS 022342Z 0300/0324 00000KT 6SM HZ SCT080
     FM030700 00000KT 4SM BR SCT050
     FM030900 00000KT 2SM BR SCT002
     FM031300 00000KT 6SM HZ SCT035
     FM031700 33005KT P6SM VCTS BKN035CB
     FM032300 VRB03KT P6SM SCT045=



000
FTUS41 KRLX 022342
TAFCRW
TAF
KCRW 022342Z 0300/0324 00000KT 6SM HZ SCT080
     FM030600 00000KT 4SM BR SCT050
     FM030800 00000KT 2SM BR SCT002
     FM031300 00000KT 6SM HZ SCT035
     FM031500 00000KT P6SM BKN035
     FM031700 VRB03KT P6SM VCTS BKN035CB
     FM032300 00000KT P6SM VCTS SCT040CB=



000
FTUS41 KRLX 022342
TAFBKW
TAF
KBKW 022342Z 0300/0324 34005KT P6SM VCTS SCT040CB
      TEMPO 0300/0302 3SM TSRA BKN035CB
     FM030300 00000KT 6SM BR BKN040
     FM030800 00000KT 4SM BR SCT045
     FM031600 32005KT P6SM VCTS BKN035CB=



000
FTUS41 KRLX 022342
TAFCKB
TAF
KCKB 022342Z 0300/0324 00000KT 6SM HZ SCT050
     FM030300 00000KT 4SM BR SCT070
     FM030500 00000KT 2SM BR SCT001 SCT050
     FM031300 00000KT P6SM SCT040
     FM031700 VRB03KT 6SM HZ VCTS BKN030CB
     FM032300 00000KT P6SM VCTS SCT030CB=



000
FTUS41 KRLX 022145 AAB
TAFPKB
TAF AMD
KPKB 022145Z 0222/0318 25004KT P6SM VCTS SCT045CB
      TEMPO 0222/0223 3SM SHRA BKN030
     FM030100 00000KT P6SM SCT045
     FM030900 00000KT 4SM BR SCT045
     FM031200 00000KT P6SM SCT035
     FM031600 00000KT P6SM VCTS SCT040CB=



000
FTUS41 KRLX 022145 AAB
TAFPKB
TAF AMD
KPKB 022145Z 0222/0318 25004KT P6SM VCTS SCT045CB
      TEMPO 0222/0223 3SM SHRA BKN030
     FM030100 00000KT P6SM SCT045
     FM030900 00000KT 4SM BR SCT045
     FM031200 00000KT P6SM SCT035
     FM031600 00000KT P6SM VCTS SCT040CB=



000
FTUS41 KRLX 022023 AAA
TAFCKB
TAF AMD
KCKB 022023Z 0220/0318 25004KT P6SM VCTS SCT040CB BKN100
      TEMPO 0220/0222 27015G25KT 2SM +TSRA BR BKN025CB
     FM022200 26004KT P6SM SCT045 SCT100
     FM030600 00000KT 4SM BR SCT045
     FM031600 VRB03KT P6SM VCTS BKN035CB=



000
FTUS41 KRLX 022023 AAA
TAFCKB
TAF AMD
KCKB 022023Z 0220/0318 25004KT P6SM VCTS SCT040CB BKN100
      TEMPO 0220/0222 27015G25KT 2SM +TSRA BR BKN025CB
     FM022200 26004KT P6SM SCT045 SCT100
     FM030600 00000KT 4SM BR SCT045
     FM031600 VRB03KT P6SM VCTS BKN035CB=



000
FTUS41 KRLX 022007 AAA
TAFCRW
TAF AMD
KCRW 022007Z 0220/0318 27005KT P6SM VCTS BKN035CB BKN100
      TEMPO 0221/0222 27015G25KT 3SM TSRA BKN030CB
     FM022300 VRB03KT P6SM SCT035
     FM030900 00000KT 2SM BR BKN003
     FM031200 00000KT P6SM SCT035
     FM031500 00000KT P6SM BKN035=



000
FTUS41 KRLX 021922 AAA
TAFPKB
TAF AMD
KPKB 021922Z 0219/0318 25004KT P6SM VCTS SCT045CB
      TEMPO 0219/0220 3SM TSRA BKN030CB
     FM030100 00000KT P6SM SCT045
     FM030900 00000KT 4SM BR SCT045
     FM031200 00000KT P6SM SCT035
     FM031600 00000KT P6SM VCTS SCT040CB=



000
FTUS41 KRLX 021723
TAFHTS
TAF
KHTS 021723Z 0218/0318 VRB03KT P6SM SCT035
     FM030900 00000KT 3SM BR SCT035
     FM031200 00000KT P6SM SCT035
     FM031700 VRB03KT P6SM BKN035=



000
FTUS41 KRLX 021723
TAFCKB
TAF
KCKB 021723Z 0218/0318 25004KT P6SM VCTS BKN045CB
     FM022100 26004KT P6SM SCT045
     FM030900 00000KT 5SM BR SCT045
     FM031600 VRB03KT P6SM VCTS BKN035CB=



000
FTUS41 KRLX 021723
TAFBKW
TAF
KBKW 021723Z 0218/0318 30005KT P6SM SCT045
     FM030400 00000KT P6SM BKN250
     FM031700 33005KT P6SM VCTS BKN060CB=



000
FTUS41 KRLX 021723
TAFPKB
TAF
KPKB 021723Z 0218/0318 25004KT P6SM VCTS SCT045CB
     FM030100 00000KT P6SM SCT045
     FM030900 00000KT 5SM BR SCT045
     FM031200 00000KT P6SM SCT035
     FM031600 00000KT P6SM VCTS SCT040CB=



000
FTUS41 KRLX 021723
TAFCRW
TAF
KCRW 021723Z 0218/0318 27005KT P6SM VCTS BKN035CB
     FM022200 VRB03KT P6SM SCT035
     FM030900 00000KT 2SM BR BKN003
     FM031200 00000KT P6SM SCT035
     FM031500 00000KT P6SM BKN035=



000
FTUS41 KRLX 021723
TAFEKN
TAF
KEKN 021723Z 0218/0318 29004KT P6SM VCTS BKN045CB
     FM022300 00000KT P6SM SCT045
     FM030900 00000KT 2SM BR BKN003
     FM031200 00000KT P6SM SCT040
     FM031600 28004KT P6SM VCTS BKN040CB=



000
FTUS41 KRLX 021633 AAA
TAFEKN
TAF AMD
KEKN 021633Z 0217/0312 32004KT P6SM VCTS BKN045CB
     FM022200 31004KT P6SM VCTS SCT045CB
     FM022300 VRB03KT P6SM SCT045
     FM030900 00000KT 2SM BR BKN003=



000
FTUS41 KRLX 021633 AAA
TAFEKN
TAF AMD
KEKN 021633Z 0217/0312 32004KT P6SM VCTS BKN045CB
     FM022200 31004KT P6SM VCTS SCT045CB
     FM022300 VRB03KT P6SM SCT045
     FM030900 00000KT 2SM BR BKN003=



000
FTUS41 KRLX 021632 AAA
TAFCKB
TAF AMD
KCKB 021632Z 0217/0312 00000KT 6SM -RA BKN035
     FM021800 VRB03KT P6SM VCTS BKN045CB
     FM022000 28004KT P6SM BKN045
     FM022200 VRB03KT P6SM SCT050=



000
FTUS41 KRLX 021120
TAFPKB
TAF
KPKB 021120Z 0212/0312 00000KT 5SM BR SCT035
     FM021300 00000KT P6SM SCT035
     FM021800 28004KT P6SM BKN045
     FM022000 29005KT P6SM SCT045
     FM030100 00000KT P6SM BKN250=



000
FTUS41 KRLX 021120
TAFHTS
TAF
KHTS 021120Z 0212/0312 00000KT 3SM BR BKN001
     FM021230 00000KT P6SM FEW035 SCT120
     FM021700 VRB03KT P6SM BKN045
     FM022000 VRB03KT P6SM SCT045
     FM030400 00000KT P6SM BKN250=



000
FTUS41 KRLX 021120
TAFBKW
TAF
KBKW 021120Z 0212/0312 00000KT P6SM SCT045
     FM021800 31006KT P6SM SCT045
     FM030200 00000KT P6SM SCT045
     FM030400 00000KT P6SM BKN250=



000
FTUS41 KRLX 021120
TAFEKN
TAF
KEKN 021120Z 0212/0312 00000KT 6SM BR SCT002 SCT100
     FM021300 00000KT P6SM SCT045
     FM021700 32004KT P6SM VCTS BKN045CB
     FM022200 31004KT P6SM VCTS SCT045CB
     FM022300 VRB03KT P6SM SCT045
     FM030900 00000KT 2SM BR BKN003=



000
FTUS41 KRLX 021120
TAFCRW
TAF
KCRW 021120Z 0212/0312 00000KT 4SM BR SCT001
     FM021230 00000KT P6SM SCT035
     FM021800 29004KT P6SM BKN035
     FM022200 29004KT P6SM SCT035
     FM030900 00000KT 2SM BR BKN003=



000
FTUS41 KRLX 021120
TAFPKB
TAF
KPKB 021120Z 0212/0312 00000KT 5SM BR SCT035
     FM021300 00000KT P6SM SCT035
     FM021800 28004KT P6SM BKN045
     FM022000 29005KT P6SM SCT045
     FM030100 00000KT P6SM BKN250=



000
FTUS41 KRLX 021120
TAFCKB
TAF
KCKB 021120Z 0212/0312 00000KT 5SM BR SCT045
     FM021230 00000KT P6SM SCT045
     FM021600 00000KT P6SM BKN045
     FM021800 VRB03KT P6SM VCTS BKN045CB
     FM022000 28004KT P6SM BKN045
     FM022200 VRB03KT P6SM SCT050=



000
FTUS41 KRLX 021120
TAFCRW
TAF
KCRW 021120Z 0212/0312 00000KT 4SM BR SCT001
     FM021230 00000KT P6SM SCT035
     FM021800 29004KT P6SM BKN035
     FM022200 29004KT P6SM SCT035
     FM030900 00000KT 2SM BR BKN003=



000
FTUS41 KRLX 021120
TAFBKW
TAF
KBKW 021120Z 0212/0312 00000KT P6SM SCT045
     FM021800 31006KT P6SM SCT045
     FM030200 00000KT P6SM SCT045
     FM030400 00000KT P6SM BKN250=



000
FTUS41 KRLX 021120
TAFHTS
TAF
KHTS 021120Z 0212/0312 00000KT 3SM BR BKN001
     FM021230 00000KT P6SM FEW035 SCT120
     FM021700 VRB03KT P6SM BKN045
     FM022000 VRB03KT P6SM SCT045
     FM030400 00000KT P6SM BKN250=



000
FTUS41 KRLX 021120
TAFCKB
TAF
KCKB 021120Z 0212/0312 00000KT 5SM BR SCT045
     FM021230 00000KT P6SM SCT045
     FM021600 00000KT P6SM BKN045
     FM021800 VRB03KT P6SM VCTS BKN045CB
     FM022000 28004KT P6SM BKN045
     FM022200 VRB03KT P6SM SCT050=



000
FTUS41 KRLX 021120
TAFEKN
TAF
KEKN 021120Z 0212/0312 00000KT 6SM BR SCT002 SCT100
     FM021300 00000KT P6SM SCT045
     FM021700 32004KT P6SM VCTS BKN045CB
     FM022200 31004KT P6SM VCTS SCT045CB
     FM022300 VRB03KT P6SM SCT045
     FM030900 00000KT 2SM BR BKN003=



000
FTUS41 KRLX 021029 AAB
TAFEKN
TAF AMD
KEKN 021029Z 0210/0306 00000KT 4SM BR SCT045
     FM021200 00000KT P6SM SCT045
     FM021600 32004KT P6SM VCTS BKN045CB=



000
FTUS41 KRLX 021028 AAB
TAFCKB
TAF AMD
KCKB 021028Z 0210/0306 00000KT 6SM BR FEW003
     FM021200 00000KT 5SM BR FEW001
     FM021230 00000KT P6SM SCT045
     FM021700 VRB03KT P6SM VCTS BKN045CB
     FM022000 28004KT P6SM BKN045=



000
FTUS41 KRLX 021027 AAB
TAFCRW
TAF AMD
KCRW 021027Z 0210/0306 00000KT 4SM BR FEW001 SCT100
     FM021200 00000KT 6SM BR SCT001
     FM021300 00000KT P6SM SCT035
     FM021600 29004KT P6SM BKN035=



000
FTUS41 KRLX 021027 AAB
TAFCRW
TAF AMD
KCRW 021027Z 0210/0306 00000KT 4SM BR FEW001 SCT100
     FM021200 00000KT 6SM BR SCT001
     FM021300 00000KT P6SM SCT035
     FM021600 29004KT P6SM BKN035=



000
FTUS41 KRLX 020902 AAA
TAFBKW
TAF AMD
KBKW 020902Z 0209/0306 00000KT P6SM SCT150
     FM021400 VRB03KT P6SM SCT040=



000
FTUS41 KRLX 020902 AAA
TAFCRW
TAF AMD
KCRW 020902Z 0209/0306 00000KT 4SM BR FEW001 SCT100
     FM021000 00000KT 1/2SM FG BKN001
     FM021200 00000KT 6SM BR SCT001
     FM021300 00000KT P6SM SCT035
     FM021600 29004KT P6SM BKN035=



000
FTUS41 KRLX 020902 AAA
TAFPKB
TAF AMD
KPKB 020902Z 0209/0306 00000KT 4SM BR SCT110
     FM021100 00000KT P6SM FEW035
     FM021600 28004KT P6SM BKN045=



000
FTUS41 KRLX 020902 AAA
TAFCKB
TAF AMD
KCKB 020902Z 0209/0306 00000KT 5SM BR FEW003
     FM021030 00000KT 1/4SM FG VV001
     FM021200 00000KT 5SM BR FEW001
     FM021230 00000KT P6SM SCT045
     FM021700 VRB03KT P6SM VCTS BKN045CB
     FM022000 28004KT P6SM BKN045=



000
FTUS41 KRLX 020902 AAA
TAFEKN
TAF AMD
KEKN 020902Z 0209/0306 00000KT 4SM BR SCT045
     FM021000 00000KT 2SM BR FEW001 SCT045
     FM021200 00000KT P6SM SCT045
     FM021600 32004KT P6SM VCTS BKN045CB=



000
FTUS41 KRLX 020902 AAB
TAFHTS
TAF AMD
KHTS 020902Z 0209/0306 00000KT 2SM BR SCT003
     FM021000 00000KT 1/2SM FG VV002
     FM021200 00000KT P6SM SCT035
     FM021600 30005KT P6SM BKN045=



000
FTUS41 KRLX 020728 AAA
TAFHTS
TAF AMD
KHTS 020728Z 0207/0306 00000KT 2SM BR SCT003
     FM021000 00000KT 1/2SM FG VV002
     FM021200 00000KT P6SM SCT035
     FM021600 30005KT P6SM BKN045=



000
FTUS41 KRLX 020526
TAFCRW
TAF
KCRW 020526Z 0206/0306 VRB04KT P6SM FEW060
     FM020900 00000KT 4SM BR FEW001 SCT200
     FM021000 00000KT 1/2SM FG BKN001
     FM021200 00000KT 6SM BR SCT001
     FM021300 00000KT P6SM SCT035
     FM021600 29004KT P6SM BKN035=



000
FTUS41 KRLX 020526
TAFEKN
TAF
KEKN 020526Z 0206/0306 00000KT 5SM BR SCT045
     FM020900 00000KT 2SM BR FEW001 SCT045
     FM021000 00000KT 1/4SM FG BKN001
     FM021200 00000KT P6SM SCT045
     FM021600 32004KT P6SM VCTS BKN045CB=



000
FTUS41 KRLX 020526
TAFHTS
TAF
KHTS 020526Z 0206/0306 00000KT 3SM BR SKC
     FM020800 00000KT 2SM BR SCT003
     FM021000 00000KT 1/2SM FG VV002
     FM021200 00000KT P6SM SCT035
     FM021600 30005KT P6SM BKN045=



000
FTUS41 KRLX 020526
TAFCKB
TAF
KCKB 020526Z 0206/0306 00000KT P6SM SCT045
     FM020800 00000KT 4SM BR SCT045
     FM021000 00000KT 1/4SM FG VV001
     FM021200 00000KT 5SM BR FEW001
     FM021300 00000KT P6SM SCT045
     FM021700 VRB03KT P6SM VCTS BKN045CB
     FM022000 28004KT P6SM BKN045=



000
FTUS41 KRLX 020526
TAFBKW
TAF
KBKW 020526Z 0206/0306 00000KT P6SM SCT150
     FM021400 VRB03KT P6SM SCT040=



000
FTUS41 KRLX 020526
TAFPKB
TAF
KPKB 020526Z 0206/0306 00000KT 6SM BR SCT120
     FM020900 00000KT 4SM BR SCT045
      TEMPO 0209/0212 2SM BR SCT001
     FM021300 00000KT P6SM SCT035
     FM021600 28004KT P6SM BKN045=



000
FTUS41 KRLX 020526
TAFPKB
TAF
KPKB 020526Z 0206/0306 00000KT 6SM BR SCT120
     FM020900 00000KT 4SM BR SCT045
      TEMPO 0209/0212 2SM BR SCT001
     FM021300 00000KT P6SM SCT035
     FM021600 28004KT P6SM BKN045=



000
FTUS41 KRLX 020526
TAFCKB
TAF
KCKB 020526Z 0206/0306 00000KT P6SM SCT045
     FM020800 00000KT 4SM BR SCT045
     FM021000 00000KT 1/4SM FG VV001
     FM021200 00000KT 5SM BR FEW001
     FM021300 00000KT P6SM SCT045
     FM021700 VRB03KT P6SM VCTS BKN045CB
     FM022000 28004KT P6SM BKN045=



000
FTUS41 KRLX 020526
TAFCRW
TAF
KCRW 020526Z 0206/0306 VRB04KT P6SM FEW060
     FM020900 00000KT 4SM BR FEW001 SCT200
     FM021000 00000KT 1/2SM FG BKN001
     FM021200 00000KT 6SM BR SCT001
     FM021300 00000KT P6SM SCT035
     FM021600 29004KT P6SM BKN035=



000
FTUS41 KRLX 020526
TAFEKN
TAF
KEKN 020526Z 0206/0306 00000KT 5SM BR SCT045
     FM020900 00000KT 2SM BR FEW001 SCT045
     FM021000 00000KT 1/4SM FG BKN001
     FM021200 00000KT P6SM SCT045
     FM021600 32004KT P6SM VCTS BKN045CB=



000
FTUS41 KRLX 020526
TAFHTS
TAF
KHTS 020526Z 0206/0306 00000KT 3SM BR SKC
     FM020800 00000KT 2SM BR SCT003
     FM021000 00000KT 1/2SM FG VV002
     FM021200 00000KT P6SM SCT035
     FM021600 30005KT P6SM BKN045=



000
FTUS41 KRLX 020526
TAFBKW
TAF
KBKW 020526Z 0206/0306 00000KT P6SM SCT150
     FM021400 VRB03KT P6SM SCT040=



000
FTUS41 KRLX 020248 AAA
TAFBKW
TAF AMD
KBKW 020248Z 0203/0224 VRB03KT P6SM SCT045=



000
FTUS41 KRLX 020248 AAA
TAFBKW
TAF AMD
KBKW 020248Z 0203/0224 VRB03KT P6SM SCT045=



000
FTUS41 KRLX 020247 AAA
TAFCKB
TAF AMD
KCKB 020247Z 0203/0224 00000KT P6SM SCT045
     FM020800 00000KT 4SM BR SCT045
     FM021000 00000KT 1/4SM FG VV001
     FM021200 00000KT 5SM BR FEW001
     FM021300 00000KT P6SM SCT045
     FM021700 VRB03KT P6SM VCTS BKN045CB
     FM022000 28004KT P6SM BKN045=



000
FTUS41 KRLX 020247 AAA
TAFHTS
TAF AMD
KHTS 020247Z 0203/0224 00000KT P6SM SCT035
     FM020600 00000KT 4SM BR FEW035
     FM020800 00000KT 2SM BR SCT035
     FM021000 00000KT 1/2SM FG VV001
     FM021200 00000KT 3SM BR SCT035
     FM021300 00000KT P6SM SCT035
     FM021600 30005KT P6SM BKN045=



000
FTUS41 KRLX 020247 AAA
TAFEKN
TAF AMD
KEKN 020247Z 0203/0224 VRB04KT P6SM SCT045
     FM020600 00000KT 3SM BR SCT045
     FM020900 00000KT 2SM BR FEW001 SCT045
     FM021000 00000KT 1/4SM FG BKN001
     FM021200 00000KT 3SM BR SCT001
     FM021300 00000KT P6SM SCT045
     FM021600 32004KT P6SM VCTS BKN045CB=



000
FTUS41 KRLX 020247 AAA
TAFPKB
TAF AMD
KPKB 020247Z 0203/0224 00000KT P6SM SCT035
     FM020800 00000KT 4SM BR SCT045
      TEMPO 0209/0212 2SM BR SCT001
     FM021300 00000KT P6SM SCT035
     FM021600 28004KT P6SM BKN045=



000
FTUS41 KRLX 020247 AAA
TAFCRW
TAF AMD
KCRW 020247Z 0203/0224 VRB04KT P6SM SCT035
     FM020800 00000KT 3SM BR FEW001 SCT035
     FM021000 00000KT 1/2SM FG BKN001
     FM021200 00000KT 3SM BR SCT001
     FM021300 00000KT P6SM SCT035
     FM021600 29004KT P6SM BKN035=



000
FTUS41 KRLX 020247 AAA
TAFHTS
TAF AMD
KHTS 020247Z 0203/0224 00000KT P6SM SCT035
     FM020600 00000KT 4SM BR FEW035
     FM020800 00000KT 2SM BR SCT035
     FM021000 00000KT 1/2SM FG VV001
     FM021200 00000KT 3SM BR SCT035
     FM021300 00000KT P6SM SCT035
     FM021600 30005KT P6SM BKN045=



000
FTUS41 KRLX 020247 AAA
TAFCRW
TAF AMD
KCRW 020247Z 0203/0224 VRB04KT P6SM SCT035
     FM020800 00000KT 3SM BR FEW001 SCT035
     FM021000 00000KT 1/2SM FG BKN001
     FM021200 00000KT 3SM BR SCT001
     FM021300 00000KT P6SM SCT035
     FM021600 29004KT P6SM BKN035=



000
FTUS41 KRLX 020247 AAA
TAFCKB
TAF AMD
KCKB 020247Z 0203/0224 00000KT P6SM SCT045
     FM020800 00000KT 4SM BR SCT045
     FM021000 00000KT 1/4SM FG VV001
     FM021200 00000KT 5SM BR FEW001
     FM021300 00000KT P6SM SCT045
     FM021700 VRB03KT P6SM VCTS BKN045CB
     FM022000 28004KT P6SM BKN045=



000
FTUS41 KRLX 020247 AAA
TAFEKN
TAF AMD
KEKN 020247Z 0203/0224 VRB04KT P6SM SCT045
     FM020600 00000KT 3SM BR SCT045
     FM020900 00000KT 2SM BR FEW001 SCT045
     FM021000 00000KT 1/4SM FG BKN001
     FM021200 00000KT 3SM BR SCT001
     FM021300 00000KT P6SM SCT045
     FM021600 32004KT P6SM VCTS BKN045CB=



000
FTUS41 KRLX 020247 AAA
TAFPKB
TAF AMD
KPKB 020247Z 0203/0224 00000KT P6SM SCT035
     FM020800 00000KT 4SM BR SCT045
      TEMPO 0209/0212 2SM BR SCT001
     FM021300 00000KT P6SM SCT035
     FM021600 28004KT P6SM BKN045=



000
FTUS41 KRLX 012320
TAFBKW
TAF
KBKW 012320Z 0200/0224 VRB03KT P6SM SCT045=



000
FTUS41 KRLX 012320
TAFCRW
TAF
KCRW 012320Z 0200/0224 VRB04KT P6SM SCT035
     FM020800 00000KT 3SM BR FEW001 SCT035
     FM021000 00000KT 1/2SM FG BKN001
     FM021200 00000KT 3SM BR SCT001
     FM021300 00000KT P6SM SCT035
     FM021600 29004KT P6SM BKN035=



000
FTUS41 KRLX 012320
TAFEKN
TAF
KEKN 012320Z 0200/0224 VRB04KT P6SM SCT045
     FM020600 00000KT 3SM BR SCT045
     FM020900 00000KT 2SM BR FEW001 SCT045
     FM021000 00000KT 1/4SM FG BKN001
     FM021200 00000KT 3SM BR SCT001
     FM021300 00000KT P6SM SCT045
     FM021600 32004KT P6SM VCTS BKN045CB=



000
FTUS41 KRLX 012320
TAFHTS
TAF
KHTS 012320Z 0200/0224 00000KT P6SM SCT035
     FM020600 00000KT 4SM BR FEW035
     FM020800 00000KT 2SM BR SCT035
     FM021000 00000KT 1/2SM FG VV001
     FM021200 00000KT 3SM BR SCT035
     FM021300 00000KT P6SM SCT035
     FM021600 30005KT P6SM BKN045=



000
FTUS41 KRLX 012320
TAFPKB
TAF
KPKB 012320Z 0200/0224 00000KT P6SM SCT035
     FM020800 00000KT 4SM BR SCT045
      TEMPO 0209/0212 2SM BR SCT001
     FM021300 00000KT P6SM SCT035
     FM021600 28004KT P6SM BKN045=



000
FTUS41 KRLX 012320
TAFCKB
TAF
KCKB 012320Z 0200/0224 00000KT P6SM SCT045
     FM020800 00000KT 4SM BR SCT045
     FM021000 00000KT 1/4SM FG VV001
     FM021200 00000KT 5SM BR FEW001
     FM021300 00000KT P6SM SCT045
     FM021700 VRB03KT P6SM VCTS BKN045CB
     FM022000 28004KT P6SM BKN045=



000
FTUS41 KRLX 011737
TAFCRW
TAF
KCRW 011737Z 0118/0218 VRB04KT P6SM SCT045 SCT100 SCT300
     FM011900 00000KT P6SM SCT035
     FM020600 00000KT 4SM BR SCT045
     FM020700 00000KT 1/2SM FG VV001
     FM021230 00000KT 3SM BR SCT060
     FM021300 00000KT P6SM SCT050=



000
FTUS41 KRLX 011737
TAFCRW
TAF
KCRW 011737Z 0118/0218 VRB04KT P6SM SCT045 SCT100 SCT300
     FM011900 00000KT P6SM SCT035
     FM020600 00000KT 4SM BR SCT045
     FM020700 00000KT 1/2SM FG VV001
     FM021230 00000KT 3SM BR SCT060
     FM021300 00000KT P6SM SCT050=



000
FTUS41 KRLX 011737
TAFPKB
TAF
KPKB 011737Z 0118/0218 VRB04KT P6SM SCT035
     FM020700 00000KT 4SM BR SCT045
     FM020800 00000KT 1/4SM FG VV001
     FM021300 00000KT 3SM BR SCT050
     FM021330 00000KT P6SM SCT035=



000
FTUS41 KRLX 011737
TAFHTS
TAF
KHTS 011737Z 0118/0218 VRB03KT P6SM FEW035 SCT045
     FM020700 00000KT 5SM BR SCT035
     FM020800 00000KT 2SM BR FEW060
     FM020900 00000KT 1/2SM FG VV001
     FM021200 00000KT 3/4SM BR SCT001 SCT060
     FM021300 00000KT P6SM SCT060
     FM021700 VRB03KT P6SM BKN050=



000
FTUS41 KRLX 011737
TAFCKB
TAF
KCKB 011737Z 0118/0218 VRB04KT P6SM FEW040
     FM012000 27004KT P6SM BKN045
     FM020600 00000KT 5SM BR SCT045
     FM020700 00000KT 1/4SM FG VV001
     FM021300 00000KT 4SM BR SCT045
     FM021330 00000KT P6SM BKN045
     FM021700 VRB03KT P6SM VCTS BKN045CB=



000
FTUS41 KRLX 011737
TAFEKN
TAF
KEKN 011737Z 0118/0218 VRB04KT P6SM SCT040
     FM012000 33005KT P6SM VCSH BKN050
     FM020300 00000KT 6SM BR SCT045
     FM020500 00000KT 2SM BR SCT001 SCT045
     FM020600 00000KT 1/4SM FG VV001
     FM021300 00000KT 3SM HZ SCT045
     FM021330 00000KT P6SM SCT045
     FM021600 32004KT P6SM VCTS BKN045CB=



000
FTUS41 KRLX 011737
TAFBKW
TAF
KBKW 011737Z 0118/0218 VRB04KT P6SM SKC
     FM020200 00000KT P6SM SCT045=



000
FTUS41 KRLX 011737
TAFBKW
TAF
KBKW 011737Z 0118/0218 VRB04KT P6SM SKC
     FM020200 00000KT P6SM SCT045=



000
FTUS41 KRLX 011737
TAFHTS
TAF
KHTS 011737Z 0118/0218 VRB03KT P6SM FEW035 SCT045
     FM020700 00000KT 5SM BR SCT035
     FM020800 00000KT 2SM BR FEW060
     FM020900 00000KT 1/2SM FG VV001
     FM021200 00000KT 3/4SM BR SCT001 SCT060
     FM021300 00000KT P6SM SCT060
     FM021700 VRB03KT P6SM BKN050=



000
FTUS41 KRLX 011737
TAFPKB
TAF
KPKB 011737Z 0118/0218 VRB04KT P6SM SCT035
     FM020700 00000KT 4SM BR SCT045
     FM020800 00000KT 1/4SM FG VV001
     FM021300 00000KT 3SM BR SCT050
     FM021330 00000KT P6SM SCT035=



000
FTUS41 KRLX 011737
TAFEKN
TAF
KEKN 011737Z 0118/0218 VRB04KT P6SM SCT040
     FM012000 33005KT P6SM VCSH BKN050
     FM020300 00000KT 6SM BR SCT045
     FM020500 00000KT 2SM BR SCT001 SCT045
     FM020600 00000KT 1/4SM FG VV001
     FM021300 00000KT 3SM HZ SCT045
     FM021330 00000KT P6SM SCT045
     FM021600 32004KT P6SM VCTS BKN045CB=



000
FTUS41 KRLX 011737
TAFCKB
TAF
KCKB 011737Z 0118/0218 VRB04KT P6SM FEW040
     FM012000 27004KT P6SM BKN045
     FM020600 00000KT 5SM BR SCT045
     FM020700 00000KT 1/4SM FG VV001
     FM021300 00000KT 4SM BR SCT045
     FM021330 00000KT P6SM BKN045
     FM021700 VRB03KT P6SM VCTS BKN045CB=



000
FTUS41 KRLX 011510 AAA
TAFEKN
TAF AMD
KEKN 011510Z 0115/0212 00000KT P6SM SKC
     FM011700 22007KT P6SM SCT050
     FM012300 00000KT P6SM BKN040
     FM020700 00000KT 4SM BR BKN050
     FM020900 00000KT 2SM BR BKN003=



000
FTUS41 KRLX 011510 AAA
TAFPKB
TAF AMD
KPKB 011510Z 0115/0212 21005KT P6SM SKC
     FM011800 VRB03KT P6SM BKN050
     FM012200 00000KT P6SM SCT050
     FM020700 00000KT 6SM BR FEW045=



000
FTUS41 KRLX 011510 AAA
TAFCRW
TAF AMD
KCRW 011510Z 0115/0212 00000KT P6SM SCT110 BKN300
     FM020700 00000KT 4SM BR SCT045
     FM020900 00000KT 2SM BR SCT003=



000
FTUS41 KRLX 011510 AAA
TAFEKN
TAF AMD
KEKN 011510Z 0115/0212 00000KT P6SM SKC
     FM011700 22007KT P6SM SCT050
     FM012300 00000KT P6SM BKN040
     FM020700 00000KT 4SM BR BKN050
     FM020900 00000KT 2SM BR BKN003=



000
FTUS41 KRLX 011510 AAA
TAFCKB
TAF AMD
KCKB 011510Z 0115/0212 18003KT P6SM FEW035 SCT250
     FM020700 00000KT 6SM BR SCT050
     FM021000 00000KT 6SM BR SCT003
     FM021100 00000KT 6SM BR BKN003=



000
FTUS41 KRLX 011510 AAA
TAFHTS
TAF AMD
KHTS 011510Z 0115/0212 00000KT P6SM SKC
     FM020700 00000KT 6SM BR SCT045=



000
FTUS41 KRLX 011510 AAA
TAFPKB
TAF AMD
KPKB 011510Z 0115/0212 21005KT P6SM SKC
     FM011800 VRB03KT P6SM BKN050
     FM012200 00000KT P6SM SCT050
     FM020700 00000KT 6SM BR FEW045=



000
FTUS41 KRLX 011510 AAA
TAFBKW
TAF AMD
KBKW 011510Z 0115/0212 35005KT P6SM SKC
     FM011700 35004KT P6SM BKN035
     FM012000 34004KT P6SM SCT035
     FM020100 00000KT P6SM BKN035
     FM021100 00000KT P6SM SCT040=



000
FTUS41 KRLX 011510 AAA
TAFBKW
TAF AMD
KBKW 011510Z 0115/0212 35005KT P6SM SKC
     FM011700 35004KT P6SM BKN035
     FM012000 34004KT P6SM SCT035
     FM020100 00000KT P6SM BKN035
     FM021100 00000KT P6SM SCT040=



000
FTUS41 KRLX 011510 AAA
TAFCRW
TAF AMD
KCRW 011510Z 0115/0212 00000KT P6SM SCT110 BKN300
     FM020700 00000KT 4SM BR SCT045
     FM020900 00000KT 2SM BR SCT003=



000
FTUS41 KRLX 011120
TAFCKB
TAF
KCKB 011120Z 0112/0212 00000KT P6SM SCT045
     FM020700 00000KT 6SM BR SCT050
     FM021000 00000KT 6SM BR SCT003
     FM021100 00000KT 6SM BR BKN003=



000
FTUS41 KRLX 011120
TAFHTS
TAF
KHTS 011120Z 0112/0212 00000KT P6SM SCT050
     FM020700 00000KT 6SM BR SCT045=



000
FTUS41 KRLX 011120
TAFCRW
TAF
KCRW 011120Z 0112/0212 00000KT P6SM SCT040
     FM020700 00000KT 4SM BR SCT045
     FM020900 00000KT 2SM BR SCT003=



000
FTUS41 KRLX 011120
TAFEKN
TAF
KEKN 011120Z 0112/0212 00000KT P6SM SCT040
     FM011700 22007KT P6SM SCT050
     FM012300 00000KT P6SM BKN040
     FM020700 00000KT 4SM BR BKN050
     FM020900 00000KT 2SM BR BKN003=



000
FTUS41 KRLX 011120
TAFBKW
TAF
KBKW 011120Z 0112/0212 00000KT P6SM SCT035
     FM011700 35004KT P6SM BKN035
     FM012000 34004KT P6SM SCT035
     FM020100 00000KT P6SM BKN035
     FM021100 00000KT P6SM SCT040=



000
FTUS41 KRLX 011120
TAFPKB
TAF
KPKB 011120Z 0112/0212 00000KT P6SM SCT050
     FM011800 VRB03KT P6SM BKN050
     FM012200 00000KT P6SM SCT050
     FM020700 00000KT 6SM BR FEW045=



000
FTUS41 KRLX 011120
TAFBKW
TAF
KBKW 011120Z 0112/0212 00000KT P6SM SCT035
     FM011700 35004KT P6SM BKN035
     FM012000 34004KT P6SM SCT035
     FM020100 00000KT P6SM BKN035
     FM021100 00000KT P6SM SCT040=



000
FTUS41 KRLX 011120
TAFHTS
TAF
KHTS 011120Z 0112/0212 00000KT P6SM SCT050
     FM020700 00000KT 6SM BR SCT045=



000
FTUS41 KRLX 011120
TAFCRW
TAF
KCRW 011120Z 0112/0212 00000KT P6SM SCT040
     FM020700 00000KT 4SM BR SCT045
     FM020900 00000KT 2SM BR SCT003=



000
FTUS41 KRLX 011120
TAFCKB
TAF
KCKB 011120Z 0112/0212 00000KT P6SM SCT045
     FM020700 00000KT 6SM BR SCT050
     FM021000 00000KT 6SM BR SCT003
     FM021100 00000KT 6SM BR BKN003=



000
FTUS41 KRLX 011120
TAFEKN
TAF
KEKN 011120Z 0112/0212 00000KT P6SM SCT040
     FM011700 22007KT P6SM SCT050
     FM012300 00000KT P6SM BKN040
     FM020700 00000KT 4SM BR BKN050
     FM020900 00000KT 2SM BR BKN003=



000
FTUS41 KRLX 011120
TAFPKB
TAF
KPKB 011120Z 0112/0212 00000KT P6SM SCT050
     FM011800 VRB03KT P6SM BKN050
     FM012200 00000KT P6SM SCT050
     FM020700 00000KT 6SM BR FEW045=



000
FTUS41 KRLX 011052 AAB
TAFEKN
TAF AMD
KEKN 011052Z 0111/0206 00000KT 1/4SM FG VV002
     FM011200 33006KT P6SM SCT040=



000
FTUS41 KRLX 011052 AAB
TAFEKN
TAF AMD
KEKN 011052Z 0111/0206 00000KT 1/4SM FG VV002
     FM011200 33006KT P6SM SCT040=



000
FTUS41 KRLX 011004 AAB
TAFHTS
TAF AMD
KHTS 011004Z 0110/0206 00000KT 2SM BR BKN002
     FM011200 VRB04KT P6SM SCT050=



000
FTUS41 KRLX 011003 AAB
TAFCKB
TAF AMD
KCKB 011003Z 0110/0206 00000KT 1SM BR SCT003 BKN120
     FM011200 00000KT P6SM SCT045=



000
FTUS41 KRLX 011003 AAB
TAFCKB
TAF AMD
KCKB 011003Z 0110/0206 00000KT 1SM BR SCT003 BKN120
     FM011200 00000KT P6SM SCT045=



000
FTUS41 KRLX 010837 AAA
TAFPKB
TAF AMD
KPKB 010837Z 0109/0206 00000KT 3SM BR FEW001
     FM011000 00000KT 1SM BR SCT003
     FM011200 00000KT 6SM BR SCT050
     FM011300 24005KT P6SM SCT050=



000
FTUS41 KRLX 010837 AAA
TAFCKB
TAF AMD
KCKB 010837Z 0109/0206 00000KT P6SM OVC120
     FM011000 00000KT 3SM BR SCT003
     FM011200 00000KT P6SM SCT045=



000
FTUS41 KRLX 010837 AAA
TAFHTS
TAF AMD
KHTS 010837Z 0109/0206 00000KT 4SM BR SCT003
      TEMPO 0109/0111 2SM BR BKN001
     FM011200 VRB04KT P6SM SCT050=



000
FTUS41 KRLX 010837 AAA
TAFCRW
TAF AMD
KCRW 010837Z 0109/0206 00000KT 4SM BR FEW001
     FM011000 00000KT 1/2SM FG BKN001
     FM011200 VRB04KT 6SM BR FEW025
     FM011300 VRB03KT P6SM SCT050=



000
FTUS41 KRLX 010837 AAA
TAFCKB
TAF AMD
KCKB 010837Z 0109/0206 00000KT P6SM OVC120
     FM011000 00000KT 3SM BR SCT003
     FM011200 00000KT P6SM SCT045=



000
FTUS41 KRLX 010837 AAA
TAFPKB
TAF AMD
KPKB 010837Z 0109/0206 00000KT 3SM BR FEW001
     FM011000 00000KT 1SM BR SCT003
     FM011200 00000KT 6SM BR SCT050
     FM011300 24005KT P6SM SCT050=



000
FTUS41 KRLX 010837 AAA
TAFHTS
TAF AMD
KHTS 010837Z 0109/0206 00000KT 4SM BR SCT003
      TEMPO 0109/0111 2SM BR BKN001
     FM011200 VRB04KT P6SM SCT050=



000
FTUS41 KRLX 010837 AAA
TAFCRW
TAF AMD
KCRW 010837Z 0109/0206 00000KT 4SM BR FEW001
     FM011000 00000KT 1/2SM FG BKN001
     FM011200 VRB04KT 6SM BR FEW025
     FM011300 VRB03KT P6SM SCT050=



000
FTUS41 KRLX 010837 AAA
TAFBKW
TAF AMD
KBKW 010837Z 0109/0206 VRB03KT P6SM SKC
     FM011600 31006KT P6SM SCT025
     FM012200 VRB03KT P6SM BKN080=



000
FTUS41 KRLX 010837 AAA
TAFEKN
TAF AMD
KEKN 010837Z 0109/0206 00000KT 5SM BR BKN040 OVC120
     FM011200 33006KT P6SM SCT040=



000
FTUS41 KRLX 010533
TAFPKB
TAF
KPKB 010533Z 0106/0206 00000KT P6SM SCT090
     FM010800 00000KT 5SM BR FEW001
     FM011000 00000KT 1SM BR SCT003
     FM011200 00000KT 6SM BR SCT050
     FM011300 24005KT P6SM SCT050=



000
FTUS41 KRLX 010533
TAFEKN
TAF
KEKN 010533Z 0106/0206 00000KT P6SM SKC
     FM010800 00000KT 4SM BR SCT100
     FM011000 00000KT 1/4SM FG VV001
     FM011200 00000KT 3SM HZ SCT040
     FM011300 33006KT P6SM SCT040=



000
FTUS41 KRLX 010533
TAFHTS
TAF
KHTS 010533Z 0106/0206 00000KT 3SM BR SCT001
     FM010630 00000KT 2SM BR SCT001
     FM010800 00000KT 1/4SM FG BKN001
     FM011200 00000KT 4SM BR FEW003
     FM011300 VRB04KT P6SM SCT050=



000
FTUS41 KRLX 010533
TAFBKW
TAF
KBKW 010533Z 0106/0206 VRB03KT P6SM SCT035
     FM011600 31006KT P6SM SCT025
     FM012200 VRB03KT P6SM BKN080=



000
FTUS41 KRLX 010533
TAFCKB
TAF
KCKB 010533Z 0106/0206 00000KT P6SM OVC090
     FM010800 00000KT 4SM BR SCT045
     FM011000 00000KT 1SM BR SCT003
     FM011200 00000KT P6SM SCT045=



000
FTUS41 KRLX 010533
TAFCRW
TAF
KCRW 010533Z 0106/0206 00000KT P6SM SKC
     FM010700 00000KT 4SM BR FEW001
     FM010800 00000KT 3SM BR BKN001
     FM011000 00000KT 1/2SM FG BKN001
     FM011200 VRB04KT 6SM BR FEW025
     FM011300 VRB03KT P6SM SCT050=



000
FTUS41 KRLX 010244 AAA
TAFCKB
TAF AMD
KCKB 010244Z 0103/0124 00000KT P6SM SCT045
     FM010400 00000KT 4SM BR SCT045
     FM010600 00000KT 1SM BR SCT003
     FM010800 00000KT 1/4SM FG VV001
     FM011200 00000KT 3SM BR SCT001
     FM011300 VRB04KT P6SM SCT045=



000
FTUS41 KRLX 010244 AAA
TAFPKB
TAF AMD
KPKB 010244Z 0103/0124 31004KT P6SM SCT050
     FM010500 00000KT 5SM HZ SCT050
     FM010600 00000KT 1SM HZ SCT003
     FM010800 00000KT 1/4SM FG VV001
     FM011200 00000KT 3SM HZ SCT050
     FM011300 24005KT P6SM SCT050=



000
FTUS41 KRLX 010244 AAA
TAFHTS
TAF AMD
KHTS 010244Z 0103/0124 VRB03KT 6SM BR SCT050
     FM010400 00000KT 5SM BR SCT050
     FM010600 00000KT 1SM BR SCT001
     FM010800 00000KT 1/4SM FG BKN001
     FM011200 00000KT 3SM HZ FEW050
     FM011300 VRB04KT P6SM SCT050=



000
FTUS41 KRLX 010244 AAA
TAFBKW
TAF AMD
KBKW 010244Z 0103/0124 VRB03KT P6SM SCT035=



000
FTUS41 KRLX 010242 AAA
TAFCRW
TAF AMD
KCRW 010242Z 0103/0124 00000KT 6SM BR SCT040
     FM010700 00000KT 4SM HZ SKC
     FM010800 00000KT 1/4SM FG VV001
     FM011200 00000KT 3SM BR FEW040
     FM011300 VRB04KT P6SM SCT040=



000
FTUS41 KRLX 312322
TAFHTS
TAF
KHTS 312322Z 0100/0124 VRB03KT P6SM SCT050
     FM010400 00000KT 5SM BR SCT050
     FM010900 00000KT 1SM BR SCT001
     FM011200 00000KT 3SM HZ FEW050
     FM011300 VRB04KT P6SM SCT050=



000
FTUS41 KRLX 312322
TAFBKW
TAF
KBKW 312322Z 0100/0124 VRB03KT P6SM BKN035
     FM010100 VRB03KT P6SM SCT035=



000
FTUS41 KRLX 312322
TAFCKB
TAF
KCKB 312322Z 0100/0124 00000KT P6SM VCTS SCT045CB
     FM010100 00000KT P6SM SCT045
     FM010400 00000KT 4SM BR SCT045
     FM010600 00000KT 1SM BR SCT003
     FM010800 00000KT 1/4SM FG VV001
     FM011200 00000KT 3SM BR SCT001
     FM011300 VRB04KT P6SM SCT045=



000
FTUS41 KRLX 312322
TAFPKB
TAF
KPKB 312322Z 0100/0124 31004KT P6SM SCT050
     FM010500 00000KT 5SM HZ SCT050
     FM010600 00000KT 1SM HZ SCT003
     FM010800 00000KT 1/4SM FG VV001
     FM011200 00000KT 3SM HZ SCT050
     FM011300 24005KT P6SM SCT050=



000
FTUS41 KRLX 312322
TAFEKN
TAF
KEKN 312322Z 0100/0124 00000KT P6SM BKN040
     FM010200 00000KT 4SM BR SCT040
     FM010400 00000KT 1SM BR SCT040
     FM010500 00000KT 1/4SM FG VV001
     FM011200 00000KT 3SM HZ SCT040
     FM011300 33006KT P6SM SCT040=



000
FTUS41 KRLX 312322
TAFCRW
TAF
KCRW 312322Z 0100/0124 VRB04KT P6SM SCT040
     FM010300 00000KT 4SM HZ SCT040
     FM010800 00000KT 1/4SM FG VV001
     FM011200 00000KT 3SM BR FEW040
     FM011300 VRB04KT P6SM SCT040=



000
FTUS41 KRLX 312123 AAA
TAFHTS
TAF AMD
KHTS 312123Z 3121/0118 VRB05KT P6SM VCTS FEW045CB
     FM312300 VRB04KT P6SM FEW045
     FM010600 00000KT 4SM BR SCT040
     FM010800 00000KT 1/4SM FG VV001
     FM011200 00000KT 3SM BR SCT050
     FM011300 00000KT P6SM SCT050=



000
FTUS41 KRLX 312122 AAA
TAFCKB
TAF AMD
KCKB 312122Z 3121/0118 VRB04KT P6SM VCTS BKN035CB
     FM312300 VRB04KT P6SM BKN035
     FM010700 00000KT 3SM BR FEW045
     FM010900 00000KT 1/2SM FG VV001
     FM011200 00000KT 5SM BR SCT045
     FM011300 00000KT P6SM SCT045=



000
FTUS41 KRLX 311737
TAFPKB
TAF
KPKB 311737Z 3118/0118 29006KT P6SM BKN040 BKN060
     FM010500 00000KT 4SM BR SCT040
     FM010700 00000KT 1/4SM FG VV001
     FM011200 00000KT 3SM BR SCT050
     FM011300 00000KT P6SM SCT050=



000
FTUS41 KRLX 311737
TAFBKW
TAF
KBKW 311737Z 3118/0118 02006KT P6SM SCT028=



000
FTUS41 KRLX 311737
TAFEKN
TAF
KEKN 311737Z 3118/0118 VRB05KT P6SM SCT040
     FM010300 00000KT 4SM BR SCT040
     FM010400 00000KT 1 1/2SM BR FEW040
     FM010500 00000KT 1/2SM FG VV001
     FM011200 00000KT 3SM BR SCT040
     FM011300 00000KT P6SM SCT040=



000
FTUS41 KRLX 311737
TAFHTS
TAF
KHTS 311737Z 3118/0118 VRB05KT P6SM FEW045
     FM010600 00000KT 4SM BR SCT040
     FM010800 00000KT 1/4SM FG VV001
     FM011200 00000KT 3SM BR SCT050
     FM011300 00000KT P6SM SCT050=



000
FTUS41 KRLX 311737
TAFCKB
TAF
KCKB 311737Z 3118/0118 VRB04KT P6SM BKN045
     FM010700 00000KT 3SM BR FEW045
     FM010900 00000KT 1/2SM FG VV001
     FM011200 00000KT 5SM BR SCT045
     FM011300 00000KT P6SM SCT045=



000
FTUS41 KRLX 311737
TAFCRW
TAF
KCRW 311737Z 3118/0118 VRB04KT P6SM SCT040
     FM010600 00000KT 4SM BR SCT040
     FM010800 00000KT 1/4SM FG VV001
     FM011200 00000KT 3SM BR SCT040
     FM011300 00000KT P6SM SCT040=



000
FTUS41 KRLX 311528 AAA
TAFBKW
TAF AMD
KBKW 311528Z 3115/0112 VRB04KT P6SM SCT024 BKN035 OVC120
     FM010400 VRB03KT P6SM SCT070=



000
FTUS41 KRLX 311528 AAA
TAFHTS
TAF AMD
KHTS 311528Z 3115/0112 00000KT P6SM SKC
     FM010100 00000KT P6SM SCT050=



000
FTUS41 KRLX 311528 AAA
TAFPKB
TAF AMD
KPKB 311528Z 3115/0112 VRB04KT P6SM SKC
     FM312300 00000KT P6SM SCT050=



000
FTUS41 KRLX 311528 AAA
TAFCKB
TAF AMD
KCKB 311528Z 3115/0112 VRB04KT P6SM BKN035 BKN150
     FM312300 00000KT P6SM SCT060=



000
FTUS41 KRLX 311528 AAA
TAFCRW
TAF AMD
KCRW 311528Z 3115/0112 00000KT P6SM FEW025 SCT170
     FM010100 00000KT P6SM SCT050=



000
FTUS41 KRLX 311528 AAA
TAFEKN
TAF AMD
KEKN 311528Z 3115/0112 00000KT P6SM BKN120
     FM010400 00000KT P6SM SCT070=



000
FTUS41 KRLX 311159 CCA
TAFCRW
TAF COR
KCRW 311159Z 3112/0112 00000KT 1SM BR BKN001 BKN150
     FM311230 VRB03KT P6SM SCT045 SCT150
     FM010100 00000KT P6SM SCT050=



000
FTUS41 KRLX 311159 CCA
TAFCRW
TAF COR
KCRW 311159Z 3112/0112 00000KT 1SM BR BKN001 BKN150
     FM311230 VRB03KT P6SM SCT045 SCT150
     FM010100 00000KT P6SM SCT050=



000
FTUS41 KRLX 311120
TAFEKN
TAF
KEKN 311120Z 3112/0112 VRB03KT 6SM BR BKN120
     FM010400 00000KT P6SM SCT070=



000
FTUS41 KRLX 311120
TAFCRW
TAF
KCRW 311120Z 3112/0112 00000KT 6SM BR SCT045 BKN120
     FM311300 VRB03KT P6SM BKN045 OVC120
     FM010100 00000KT P6SM SCT050=



000
FTUS41 KRLX 311120
TAFPKB
TAF
KPKB 311120Z 3112/0112 00000KT P6SM SCT120
     FM311400 18005KT P6SM SCT035 SCT120
     FM312300 00000KT P6SM SCT050=



000
FTUS41 KRLX 311120
TAFCKB
TAF
KCKB 311120Z 3112/0112 VRB03KT P6SM SCT060 OVC120
      TEMPO 3112/3115 4SM -SHRA BKN040
     FM312300 00000KT P6SM SCT060=



000
FTUS41 KRLX 311120
TAFBKW
TAF
KBKW 311120Z 3112/0112 18004KT P6SM BKN060
     FM010400 VRB03KT P6SM SCT070=



000
FTUS41 KRLX 311120
TAFEKN
TAF
KEKN 311120Z 3112/0112 VRB03KT 6SM BR BKN120
     FM010400 00000KT P6SM SCT070=



000
FTUS41 KRLX 311120
TAFHTS
TAF
KHTS 311120Z 3112/0112 00000KT P6SM SCT120
     FM311400 22005KT P6SM SKC
     FM010100 00000KT P6SM SCT050=



000
FTUS41 KRLX 311120
TAFHTS
TAF
KHTS 311120Z 3112/0112 00000KT P6SM SCT120
     FM311400 22005KT P6SM SKC
     FM010100 00000KT P6SM SCT050=



000
FTUS41 KRLX 311120
TAFCKB
TAF
KCKB 311120Z 3112/0112 VRB03KT P6SM SCT060 OVC120
      TEMPO 3112/3115 4SM -SHRA BKN040
     FM312300 00000KT P6SM SCT060=



000
FTUS41 KRLX 311120
TAFPKB
TAF
KPKB 311120Z 3112/0112 00000KT P6SM SCT120
     FM311400 18005KT P6SM SCT035 SCT120
     FM312300 00000KT P6SM SCT050=



000
FTUS41 KRLX 311120
TAFCRW
TAF
KCRW 311120Z 3112/0112 00000KT 6SM BR SCT045 BKN120
     FM311300 VRB03KT P6SM BKN045 OVC120
     FM010100 00000KT P6SM SCT050=



000
FTUS41 KRLX 311120
TAFBKW
TAF
KBKW 311120Z 3112/0112 18004KT P6SM BKN060
     FM010400 VRB03KT P6SM SCT070=



000
FTUS41 KRLX 311005 AAB
TAFCRW
TAF AMD
KCRW 311005Z 3110/0106 00000KT 3SM BR BKN001 BKN120
     FM311200 00000KT 6SM BR SCT045 BKN120
     FM311300 00000KT P6SM BKN045
     FM010100 00000KT P6SM SCT050=



000
FTUS41 KRLX 310848 AAA
TAFEKN
TAF AMD
KEKN 310848Z 3109/0106 00000KT 6SM BR SCT002 BKN120
     FM311100 VRB03KT 6SM BR BKN050
     FM311300 VRB03KT P6SM BKN045
     FM010400 00000KT P6SM SCT070=



000
FTUS41 KRLX 310848 AAA
TAFCRW
TAF AMD
KCRW 310848Z 3109/0106 00000KT 1/2SM FG BKN001 BKN120
     FM311100 00000KT 6SM BR SCT045 BKN120
     FM311300 00000KT P6SM BKN045
     FM010100 00000KT P6SM SCT050=



000
FTUS41 KRLX 310848 AAA
TAFHTS
TAF AMD
KHTS 310848Z 3109/0106 00000KT 6SM BR SCT100
     FM311100 00000KT P6SM BKN060
     FM010100 00000KT P6SM SCT050=



000
FTUS41 KRLX 310848 AAA
TAFCKB
TAF AMD
KCKB 310848Z 3109/0106 00000KT P6SM SCT040 BKN110
     FM311300 VRB03KT P6SM SCT060 OVC120
     FM312300 00000KT P6SM SCT060=



000
FTUS41 KRLX 310848 AAA
TAFPKB
TAF AMD
KPKB 310848Z 3109/0106 00000KT 6SM BR SCT110
     FM311100 00000KT P6SM SCT060
     FM311400 VRB03KT P6SM BKN035
     FM312300 00000KT P6SM SCT050=



000
FTUS41 KRLX 310848 AAA
TAFBKW
TAF AMD
KBKW 310848Z 3109/0106 18004KT P6SM BKN060
     FM010400 VRB03KT P6SM SCT070=



000
FTUS41 KRLX 310523
TAFPKB
TAF
KPKB 310523Z 3106/0106 00000KT P6SM BKN110
     FM310800 00000KT 6SM BR SCT110
     FM311100 00000KT P6SM SCT060
     FM311400 VRB03KT P6SM BKN035
     FM312300 00000KT P6SM SCT050=



000
FTUS41 KRLX 310523
TAFBKW
TAF
KBKW 310523Z 3106/0106 18004KT P6SM BKN060
     FM010400 VRB03KT P6SM SCT070=



000
FTUS41 KRLX 310523
TAFEKN
TAF
KEKN 310523Z 3106/0106 00000KT P6SM BKN080
     FM310800 00000KT 2SM BR BKN002
     FM311100 VRB03KT 6SM BR BKN050
     FM311300 VRB03KT P6SM BKN045
     FM010400 00000KT P6SM SCT070=



000
FTUS41 KRLX 310523
TAFHTS
TAF
KHTS 310523Z 3106/0106 00000KT P6SM SCT110
     FM310800 00000KT 6SM BR SCT100
     FM311100 00000KT P6SM BKN060
     FM010100 00000KT P6SM SCT050=



000
FTUS41 KRLX 310523
TAFCKB
TAF
KCKB 310523Z 3106/0106 00000KT P6SM SCT040 BKN110
     FM311300 VRB03KT P6SM SCT060 OVC120
     FM312300 00000KT P6SM SCT060=



000
FTUS41 KRLX 310523
TAFCRW
TAF
KCRW 310523Z 3106/0106 00000KT 4SM BR FEW001 SCT120
      TEMPO 3109/3111 BKN001
     FM311200 00000KT 6SM BR SCT045 BKN120
     FM311300 00000KT P6SM BKN045
     FM010100 00000KT P6SM SCT050=



000
FTUS41 KRLX 310244 AAA
TAFBKW
TAF AMD
KBKW 310244Z 3103/3124 VRB03KT P6SM BKN050
     FM311400 32004KT P6SM BKN040=



000
FTUS41 KRLX 310243 AAA
TAFEKN
TAF AMD
KEKN 310243Z 3103/3124 00000KT P6SM BKN050
     FM310900 00000KT 5SM BR BKN050
     FM311200 VRB03KT 6SM BR BKN050
     FM311300 31005KT P6SM BKN050=



000
FTUS41 KRLX 310242 AAA
TAFHTS
TAF AMD
KHTS 310242Z 3103/3124 VRB03KT P6SM SCT120
     FM310800 00000KT 6SM BR SCT090
     FM311100 20004KT P6SM BKN050=



000
FTUS41 KRLX 310242 AAA
TAFCRW
TAF AMD
KCRW 310242Z 3103/3124 00000KT P6SM BKN120
     FM310700 00000KT 5SM BR BKN100
     FM311200 00000KT 6SM BR SCT045
     FM311300 VRB04KT P6SM BKN045=



000
FTUS41 KRLX 310242 AAA
TAFCKB
TAF AMD
KCKB 310242Z 3103/3124 24004KT P6SM SCT045
     FM310500 VRB04KT P6SM BKN050
     FM312300 00000KT P6SM SCT050=



000
FTUS41 KRLX 310242 AAA
TAFPKB
TAF AMD
KPKB 310242Z 3103/3124 24004KT P6SM SCT045
     FM310600 00000KT P6SM BKN045
     FM310800 00000KT 6SM BR SCT045
     FM311100 00000KT P6SM SCT040
     FM311400 VRB03KT P6SM BKN040
     FM312300 00000KT P6SM SCT050=



    US Dept of Commerce
    National Oceanic and Atmospheric Administration
    National Weather Service
    1325 East West Highway
    Silver Spring, MD 20910
    Page Author: NWS Internet Services Team
Disclaimer
Information Quality
Credits
Glossary
Privacy Policy
Freedom of Information Act (FOIA)
About Us
Career Opportunities